createdAt,value
2022-08-06T00:02:11.778Z,3.40
2022-08-06T00:07:18.625Z,3.92
2022-08-06T00:12:29.650Z,4.32
2022-08-06T00:17:33.027Z,3.55
2022-08-06T00:22:37.074Z,4.30
2022-08-06T00:27:40.258Z,5.18
2022-08-06T00:32:45.389Z,4.95
2022-08-06T00:37:58.506Z,4.20
2022-08-06T00:43:06.210Z,4.55
2022-08-06T00:48:31.154Z,5.47
2022-08-06T00:53:37.862Z,6.10
2022-08-06T00:58:41.339Z,5.82
2022-08-06T01:03:51.837Z,6.85
2022-08-06T01:08:56.506Z,5.55
2022-08-06T01:14:03.335Z,6.60
2022-08-06T01:21:20.813Z,6.20
2022-08-06T01:25:11.753Z,5.88
2022-08-06T01:30:20.403Z,7.15
2022-08-06T01:35:47.530Z,7.47
2022-08-06T01:40:56.800Z,7.72
2022-08-06T01:46:02.927Z,7.47
2022-08-06T01:51:17.339Z,7.35
2022-08-06T01:56:56.786Z,8.60
2022-08-06T02:01:59.680Z,7.88
2022-08-06T02:08:34.143Z,8.00
2022-08-06T02:12:32.177Z,7.25
2022-08-06T02:18:03.755Z,8.65
2022-08-06T02:23:08.712Z,7.18
2022-08-06T02:28:21.207Z,8.13
2022-08-06T02:34:01.067Z,7.90
2022-08-06T02:38:55.683Z,7.22
2022-08-06T02:44:07.743Z,7.45
2022-08-06T02:49:25.687Z,7.75
2022-08-06T02:54:46.133Z,8.00
2022-08-06T02:59:55.286Z,8.98
2022-08-06T03:05:01.950Z,8.23
2022-08-06T03:10:12.969Z,9.35
2022-08-06T03:15:58.175Z,8.38
2022-08-06T03:20:41.578Z,8.27
2022-08-06T03:25:45.974Z,8.10
2022-08-06T03:30:55.325Z,8.27
2022-08-06T03:36:03.074Z,7.82
2022-08-06T03:41:08.663Z,9.15
2022-08-06T03:46:12.049Z,8.90
2022-08-06T03:51:29.786Z,9.50
2022-08-06T03:56:46.270Z,9.02
2022-08-06T04:01:52.921Z,9.68
2022-08-06T04:07:02.654Z,9.48
2022-08-06T04:12:37.586Z,9.95
2022-08-06T04:17:32.787Z,9.65
2022-08-06T04:23:00.217Z,10.02
2022-08-06T04:28:02.145Z,11.10
2022-08-06T04:33:06.181Z,11.30
2022-08-06T04:38:14.567Z,11.77
2022-08-06T04:43:19.309Z,11.65
2022-08-06T04:48:23.403Z,10.88
2022-08-06T04:53:43.310Z,11.43
2022-08-06T04:58:51.592Z,10.70
2022-08-06T05:04:08.977Z,9.63
2022-08-06T05:09:29.263Z,9.10
2022-08-06T05:15:01.979Z,8.02
2022-08-06T05:20:26.477Z,8.60
2022-08-06T05:25:35.942Z,8.20
2022-08-06T05:30:44.871Z,6.93
2022-08-06T05:36:01.755Z,6.57
2022-08-06T05:41:09.323Z,5.93
2022-08-06T05:46:14.522Z,4.93
2022-08-06T05:51:43.077Z,4.50
2022-08-06T05:56:53.521Z,3.95
2022-08-06T06:01:57.704Z,3.90
2022-08-06T06:07:04.353Z,3.42
2022-08-06T06:12:10.850Z,3.13
2022-08-06T06:17:28.090Z,3.22
2022-08-06T06:22:51.781Z,1.67
2022-08-06T06:27:59.646Z,1.40
2022-08-06T06:33:14.267Z,1.60
2022-08-06T06:38:26.273Z,1.85
2022-08-06T06:43:44.104Z,1.90
2022-08-06T06:48:50.374Z,3.10
2022-08-06T06:54:07.080Z,3.17
2022-08-06T06:59:19.572Z,1.48
2022-08-06T07:04:26.581Z,1.40
2022-08-06T07:09:41.337Z,1.70
2022-08-06T07:15:01.299Z,1.00
2022-08-06T07:20:08.822Z,1.00
2022-08-06T07:25:15.751Z,1.10
2022-08-06T07:30:22.313Z,0.82
2022-08-06T07:35:28.580Z,0.80
2022-08-06T07:40:33.603Z,0.90
2022-08-06T07:45:50.893Z,0.70
2022-08-06T07:50:58.908Z,0.60
2022-08-06T07:56:02.627Z,0.60
2022-08-06T08:01:07.679Z,0.98
2022-08-06T08:06:22.955Z,0.60
2022-08-06T08:11:38.469Z,0.80
2022-08-06T08:16:51.964Z,0.80
2022-08-06T08:21:57.333Z,0.70
2022-08-06T08:27:12.115Z,0.63
2022-08-06T08:32:24.246Z,0.77
2022-08-06T08:37:32.243Z,1.00
2022-08-06T08:42:38.585Z,0.73
2022-08-06T08:47:53.457Z,0.60
2022-08-06T08:53:03.607Z,0.70
2022-08-06T08:58:40.788Z,0.60
2022-08-06T09:03:32.166Z,0.90
2022-08-06T09:08:58.966Z,0.70
2022-08-06T09:14:00.805Z,0.70
2022-08-06T09:19:10.575Z,0.47
2022-08-06T09:24:14.471Z,0.60
2022-08-06T09:29:33.714Z,0.70
2022-08-06T09:34:41.766Z,0.70
2022-08-06T09:40:05.882Z,0.70
2022-08-06T09:45:18.820Z,0.50
2022-08-06T09:50:43.321Z,0.80
2022-08-06T09:55:47.027Z,0.50
2022-08-06T10:00:51.095Z,0.60
2022-08-06T10:06:14.535Z,0.80
2022-08-06T10:11:33.481Z,0.70
2022-08-06T10:16:44.452Z,0.55
2022-08-06T10:21:49.097Z,0.80
2022-08-06T10:26:54.495Z,0.70
2022-08-06T10:31:58.399Z,0.65
2022-08-06T10:37:07.818Z,0.80
2022-08-06T10:42:27.787Z,0.80
2022-08-06T10:49:01.551Z,0.63
2022-08-06T10:52:56.749Z,0.80
2022-08-06T10:58:00.678Z,0.75
2022-08-06T11:03:14.523Z,0.55
2022-08-06T11:08:41.112Z,0.55
2022-08-06T11:14:03.648Z,0.50
2022-08-06T11:19:09.652Z,1.00
2022-08-06T11:24:14.432Z,0.73
2022-08-06T11:29:19.020Z,0.70
2022-08-06T11:34:34.489Z,0.80
2022-08-06T11:40:07.149Z,1.10
2022-08-06T11:46:21.032Z,0.80
2022-08-06T11:56:10.027Z,0.68
2022-08-06T12:01:33.361Z,0.60
2022-08-06T12:06:35.364Z,0.70
2022-08-06T12:11:39.392Z,1.00
2022-08-06T12:16:53.212Z,1.02
2022-08-06T12:21:57.750Z,0.90
2022-08-06T12:27:01.906Z,0.98
2022-08-06T12:32:21.710Z,0.80
2022-08-06T12:37:41.438Z,1.05
2022-08-06T12:42:54.980Z,0.95
2022-08-06T12:48:03.232Z,1.13
2022-08-06T12:53:11.329Z,1.00
2022-08-06T12:58:41.187Z,1.10
2022-08-06T13:03:49.098Z,1.40
2022-08-06T13:08:54.194Z,1.00
2022-08-06T13:14:14.182Z,1.00
2022-08-06T13:19:21.208Z,1.17
2022-08-06T13:24:35.520Z,0.80
2022-08-06T13:30:33.809Z,1.15
2022-08-06T13:35:04.302Z,0.85
2022-08-06T13:40:07.788Z,1.00
2022-08-06T13:45:57.126Z,0.88
2022-08-06T13:50:47.392Z,0.80
2022-08-06T13:56:01.359Z,0.70
2022-08-06T14:01:07.569Z,0.98
2022-08-06T14:06:10.324Z,0.80
2022-08-06T14:11:12.960Z,1.17
2022-08-06T14:16:17.616Z,0.82
2022-08-06T14:21:20.098Z,1.05
2022-08-06T14:26:25.133Z,0.88
2022-08-06T14:31:32.242Z,0.93
2022-08-06T14:36:54.965Z,1.40
2022-08-06T14:42:15.208Z,1.00
2022-08-06T14:47:56.583Z,1.70
2022-08-06T14:52:42.153Z,1.05
2022-08-06T14:58:04.624Z,0.70
2022-08-06T15:03:13.652Z,1.05
2022-08-06T15:08:16.768Z,1.17
2022-08-06T15:13:19.620Z,1.50
2022-08-06T15:18:54.261Z,1.10
2022-08-06T15:23:53.422Z,1.02
2022-08-06T15:28:57.409Z,1.15
2022-08-06T15:34:06.267Z,1.08
2022-08-06T15:39:10.115Z,1.50
2022-08-06T15:44:12.850Z,1.20
2022-08-06T15:49:20.702Z,1.23
2022-08-06T15:54:28.492Z,1.10
2022-08-06T15:59:50.622Z,1.13
2022-08-06T16:04:54.946Z,1.00
2022-08-06T16:10:03.236Z,1.30
2022-08-06T16:15:21.561Z,1.17
2022-08-06T16:20:31.199Z,1.17
2022-08-06T16:25:40.590Z,0.97
2022-08-06T16:31:11.278Z,1.10
2022-08-06T16:36:19.487Z,1.27
2022-08-06T16:41:56.706Z,0.90
2022-08-06T16:46:57.943Z,1.00
2022-08-06T16:52:43.923Z,0.95
2022-08-06T16:57:24.453Z,1.00
2022-08-06T17:02:42.226Z,1.30
2022-08-06T17:13:11.189Z,1.77
2022-08-06T17:18:13.738Z,1.30
2022-08-06T17:23:33.006Z,1.40
2022-08-06T17:28:40.099Z,1.65
2022-08-06T17:33:44.543Z,1.50
2022-08-06T17:38:48.439Z,1.30
2022-08-06T17:43:57.531Z,1.60
2022-08-06T17:49:00.409Z,1.30
2022-08-06T17:54:45.226Z,1.42
2022-08-06T17:59:33.318Z,1.52
2022-08-06T18:04:47.369Z,1.45
2022-08-06T18:10:16.467Z,1.40
2022-08-06T18:15:20.636Z,1.60
2022-08-06T18:20:32.537Z,1.58
2022-08-06T18:25:54.793Z,1.63
2022-08-06T18:31:00.268Z,2.00
2022-08-06T18:36:06.829Z,1.70
2022-08-06T18:41:15.304Z,1.95
2022-08-06T18:46:55.973Z,1.55
2022-08-06T18:51:42.375Z,2.10
2022-08-06T18:56:48.847Z,1.67
2022-08-06T19:01:52.358Z,2.00
2022-08-06T19:06:55.584Z,1.55
2022-08-06T19:11:59.704Z,2.15
2022-08-06T19:17:03.835Z,2.03
2022-08-06T19:22:09.400Z,2.47
2022-08-06T19:27:13.542Z,2.03
2022-08-06T19:32:28.663Z,1.83
2022-08-06T19:37:59.404Z,1.88
2022-08-06T19:44:26.982Z,1.67
2022-08-06T19:48:28.651Z,2.00
2022-08-06T19:53:32.855Z,1.98
2022-08-06T19:58:36.866Z,1.70
2022-08-06T20:03:41.960Z,2.08
2022-08-06T20:08:45.795Z,1.70
2022-08-06T20:13:52.371Z,2.10
2022-08-06T20:18:54.904Z,1.50
2022-08-06T20:23:58.552Z,1.88
2022-08-06T20:29:10.426Z,1.90
2022-08-06T20:34:28.988Z,2.00
2022-08-06T20:39:32.675Z,2.67
2022-08-06T20:50:03.111Z,2.22
2022-08-06T20:55:05.503Z,2.17
2022-08-06T21:00:18.886Z,2.22
2022-08-06T21:05:28.112Z,2.42
2022-08-06T21:10:40.588Z,1.90
2022-08-06T21:16:05.621Z,2.55
2022-08-06T21:21:16.967Z,2.38
2022-08-06T21:26:24.834Z,2.47
2022-08-06T21:31:29.673Z,2.70
2022-08-06T21:36:34.562Z,3.17
2022-08-06T21:41:54.230Z,3.57
2022-08-06T21:47:01.318Z,3.22
2022-08-06T21:52:04.112Z,3.42
2022-08-06T21:57:12.244Z,3.28
2022-08-06T22:02:18.852Z,3.47
2022-08-06T22:07:25.001Z,3.78
2022-08-06T22:12:37.514Z,3.58
2022-08-06T22:18:02.031Z,3.40
2022-08-06T22:23:05.473Z,3.55
2022-08-06T22:28:11.071Z,4.25
2022-08-06T22:33:29.725Z,4.32
2022-08-06T22:38:36.166Z,3.97
2022-08-06T22:43:55.675Z,4.40
2022-08-06T22:49:00.967Z,3.75
2022-08-06T22:54:29.852Z,4.53
2022-08-06T23:00:07.198Z,4.65
2022-08-06T23:04:50.518Z,4.43
2022-08-06T23:09:53.383Z,4.85
2022-08-06T23:14:56.671Z,5.28
2022-08-06T23:20:00.668Z,4.97
2022-08-06T23:26:01.751Z,5.22
2022-08-06T23:30:26.303Z,6.22
2022-08-06T23:35:35.365Z,6.32
2022-08-06T23:40:39.656Z,6.20
2022-08-06T23:45:42.643Z,7.23
2022-08-06T23:55:57.717Z,6.90
